Time;durP1;ratioP1;P1;durP2;ratioP2;P2;SDS_P1;SDS_P2;PMS_P1;PMS_P2;Temp;Humidity;BMP_temperature;BMP_pressure;BME280_temperature;BME280_humidity;BME280_pressure;Samples;Min_cycle;Max_cycle;Signal;HPM_P1;HPM_P2
2023/06/30 00:02:01;;;;;;;4.53;2.03;;;;;;;;;;5066683;28;43626;-23
2023/06/30 00:04:30;;;;;;;6.88;2.40;;;;;;;;;;5065131;28;40302;-22
2023/06/30 00:06:58;;;;;;;4.45;1.77;;;;;;;;;;5066313;28;43384;-22
2023/06/30 00:09:28;;;;;;;4.15;1.90;;;;;;;;;;5065959;28;43942;-23
2023/06/30 00:11:56;;;;;;;4.25;1.80;;;;;;;;;;5066074;28;41422;-23
2023/06/30 00:14:24;;;;;;;4.13;1.83;;;;;;;;;;5066306;28;42991;-23
2023/06/30 00:16:52;;;;;;;4.25;2.08;;;;;;;;;;5066062;28;43973;-22
2023/06/30 00:19:20;;;;;;;4.57;1.63;;;;;;;;;;5065673;28;41331;-23
2023/06/30 00:21:52;;;;;;;4.80;1.90;;;;;;;;;;5067361;28;43000;-22
2023/06/30 00:24:20;;;;;;;7.22;1.88;;;;;;;;;;5064653;28;39904;-22
2023/06/30 00:26:50;;;;;;;5.85;1.70;;;;;;;;;;5064597;28;43447;-23
2023/06/30 00:29:18;;;;;;;4.97;2.00;;;;;;;;;;5065486;28;43449;-23
2023/06/30 00:31:46;;;;;;;4.47;1.75;;;;;;;;;;5066760;28;41361;-23
2023/06/30 00:34:14;;;;;;;8.52;1.90;;;;;;;;;;5065769;28;43897;-22
2023/06/30 00:36:42;;;;;;;5.97;2.25;;;;;;;;;;5064534;28;41881;-23
2023/06/30 00:39:10;;;;;;;6.53;1.85;;;;;;;;;;5066363;28;41532;-23
2023/06/30 00:41:38;;;;;;;6.25;2.08;;;;;;;;;;5063885;28;41094;-23
2023/06/30 00:44:07;;;;;;;7.38;2.42;;;;;;;;;;5063990;28;39997;-23
2023/06/30 00:46:35;;;;;;;4.57;2.10;;;;;;;;;;5063323;28;41287;-23
2023/06/30 00:49:03;;;;;;;6.00;1.95;;;;;;;;;;5063968;28;42640;-22
2023/06/30 00:51:32;;;;;;;12.82;2.47;;;;;;;;;;5054980;28;38633;-22
2023/06/30 00:54:00;;;;;;;7.85;2.25;;;;;;;;;;5065757;28;42080;-23
2023/06/30 00:56:28;;;;;;;4.97;2.00;;;;;;;;;;5064011;28;43296;-23
2023/06/30 00:58:57;;;;;;;6.68;1.98;;;;;;;;;;5064854;28;39237;-22
2023/06/30 01:01:27;;;;;;;9.70;2.30;;;;;;;;;;5065313;28;43872;-23
2023/06/30 01:03:56;;;;;;;7.07;2.10;;;;;;;;;;5066361;28;41053;-23
2023/06/30 01:06:25;;;;;;;4.38;1.80;;;;;;;;;;5065069;28;42565;-22
2023/06/30 01:08:54;;;;;;;6.82;2.08;;;;;;;;;;5060053;28;43711;-23
2023/06/30 01:11:24;;;;;;;8.88;2.22;;;;;;;;;;5064939;28;41317;-23
2023/06/30 01:13:52;;;;;;;4.82;1.60;;;;;;;;;;5062259;28;42710;-22
2023/06/30 01:16:20;;;;;;;7.70;2.80;;;;;;;;;;5062231;28;41984;-23
2023/06/30 01:18:52;;;;;;;8.60;2.08;;;;;;;;;;5063924;28;39281;-23
2023/06/30 01:21:21;;;;;;;4.63;1.50;;;;;;;;;;5063631;28;41044;-23
2023/06/30 01:23:50;;;;;;;8.13;2.15;;;;;;;;;;5063655;28;44965;-27
2023/06/30 01:26:19;;;;;;;6.18;1.90;;;;;;;;;;5063052;28;42657;-23
2023/06/30 01:28:47;;;;;;;5.53;1.85;;;;;;;;;;5064791;28;43390;-22
2023/06/30 01:31:15;;;;;;;6.43;2.10;;;;;;;;;;5065565;28;40932;-22
2023/06/30 01:33:44;;;;;;;5.72;2.00;;;;;;;;;;5063544;28;41817;-23
2023/06/30 01:36:14;;;;;;;6.80;2.22;;;;;;;;;;5062805;28;43314;-22
2023/06/30 01:38:43;;;;;;;7.30;1.70;;;;;;;;;;5066297;28;41027;-22
2023/06/30 01:41:11;;;;;;;6.95;1.85;;;;;;;;;;5069207;28;42770;-22
2023/06/30 01:43:39;;;;;;;6.10;1.90;;;;;;;;;;5067425;28;44777;-23
2023/06/30 01:46:07;;;;;;;3.90;1.60;;;;;;;;;;5069464;28;39782;-23
2023/06/30 01:48:35;;;;;;;5.45;1.52;;;;;;;;;;5068335;28;43109;-22
2023/06/30 01:51:03;;;;;;;7.60;1.98;;;;;;;;;;5065746;28;40093;-23
2023/06/30 01:53:33;;;;;;;6.93;1.92;;;;;;;;;;5068294;28;42874;-22
2023/06/30 01:56:01;;;;;;;8.43;2.03;;;;;;;;;;5069098;28;44137;-23
2023/06/30 01:58:31;;;;;;;7.55;1.90;;;;;;;;;;5076010;28;39100;-22
2023/06/30 02:00:59;;;;;;;7.75;2.22;;;;;;;;;;5069123;28;43325;-22
2023/06/30 02:03:27;;;;;;;6.85;1.98;;;;;;;;;;5068079;28;43397;-22
2023/06/30 02:05:55;;;;;;;5.72;1.80;;;;;;;;;;5068163;28;40616;-22
2023/06/30 02:08:23;;;;;;;10.55;2.08;;;;;;;;;;5068773;28;42643;-22
2023/06/30 02:10:52;;;;;;;7.05;2.05;;;;;;;;;;5068556;28;40903;-22
2023/06/30 02:13:20;;;;;;;4.80;1.75;;;;;;;;;;5066147;28;42360;-22
2023/06/30 02:15:48;;;;;;;8.98;2.22;;;;;;;;;;5066292;28;41827;-22
2023/06/30 02:18:16;;;;;;;6.75;2.30;;;;;;;;;;5067962;28;40729;-22
2023/06/30 02:20:44;;;;;;;8.48;2.30;;;;;;;;;;5068333;28;43633;-22
2023/06/30 02:23:12;;;;;;;4.70;1.85;;;;;;;;;;5061963;28;43924;-22
2023/06/30 02:25:40;;;;;;;5.50;1.65;;;;;;;;;;5067212;28;40980;-22
2023/06/30 02:28:10;;;;;;;4.38;1.77;;;;;;;;;;5066757;28;42178;-22
2023/06/30 02:30:38;;;;;;;8.48;1.70;;;;;;;;;;5067824;28;43294;-22
2023/06/30 02:33:06;;;;;;;7.25;2.30;;;;;;;;;;5067919;28;43727;-22
2023/06/30 02:35:34;;;;;;;6.68;2.30;;;;;;;;;;5065122;28;42104;-22
2023/06/30 02:38:03;;;;;;;6.30;1.88;;;;;;;;;;5066264;28;38767;-22
2023/06/30 02:40:32;;;;;;;8.82;2.38;;;;;;;;;;5066868;28;43890;-22
2023/06/30 02:43:01;;;;;;;5.88;2.30;;;;;;;;;;5067921;28;44354;-22
2023/06/30 02:45:30;;;;;;;7.60;2.60;;;;;;;;;;5065160;28;38994;-22
2023/06/30 02:47:58;;;;;;;5.38;2.35;;;;;;;;;;5065267;28;42273;-22
2023/06/30 02:50:28;;;;;;;5.55;2.50;;;;;;;;;;5065311;28;20708;-23
2023/06/30 02:52:57;;;;;;;5.88;2.17;;;;;;;;;;5066948;28;38992;-23
2023/06/30 02:55:25;;;;;;;5.65;1.90;;;;;;;;;;5064631;28;43509;-23
2023/06/30 02:57:53;;;;;;;8.75;1.90;;;;;;;;;;5065009;28;39910;-22
2023/06/30 03:00:22;;;;;;;6.47;1.98;;;;;;;;;;5063903;28;44887;-22
2023/06/30 03:02:51;;;;;;;7.95;2.30;;;;;;;;;;5067525;28;43333;-22
2023/06/30 03:05:21;;;;;;;3.72;1.77;;;;;;;;;;5065136;28;39537;-22
2023/06/30 03:07:49;;;;;;;3.42;1.73;;;;;;;;;;5065142;28;41584;-22
2023/06/30 03:10:19;;;;;;;6.68;2.00;;;;;;;;;;5064729;28;41951;-22
2023/06/30 03:12:47;;;;;;;4.95;2.33;;;;;;;;;;5067582;28;40271;-23
2023/06/30 03:15:15;;;;;;;7.53;2.45;;;;;;;;;;5065012;28;41917;-22
2023/06/30 03:17:44;;;;;;;6.32;2.13;;;;;;;;;;5065061;28;39951;-22
2023/06/30 03:20:14;;;;;;;7.38;2.10;;;;;;;;;;5065543;28;42498;-22
2023/06/30 03:22:42;;;;;;;4.43;1.80;;;;;;;;;;5064437;28;42089;-22
2023/06/30 03:25:10;;;;;;;7.43;2.30;;;;;;;;;;5065043;28;39736;-22
2023/06/30 03:27:38;;;;;;;6.85;2.17;;;;;;;;;;5064980;28;41113;-22
2023/06/30 03:30:06;;;;;;;7.95;2.42;;;;;;;;;;5064402;28;42008;-22
2023/06/30 03:32:38;;;;;;;5.63;1.95;;;;;;;;;;5065540;28;38416;-22
2023/06/30 03:35:07;;;;;;;8.70;2.00;;;;;;;;;;5065841;28;41215;-23
2023/06/30 03:37:36;;;;;;;7.90;2.20;;;;;;;;;;5063912;28;38758;-22
2023/06/30 03:40:05;;;;;;;7.85;1.98;;;;;;;;;;5067268;28;43754;-22
2023/06/30 03:42:33;;;;;;;7.50;2.33;;;;;;;;;;5063319;28;42101;-22
2023/06/30 03:45:02;;;;;;;6.22;2.17;;;;;;;;;;5066441;28;40622;-22
2023/06/30 03:47:32;;;;;;;6.43;2.33;;;;;;;;;;5064210;28;42924;-22
2023/06/30 03:50:01;;;;;;;3.85;2.05;;;;;;;;;;5063557;28;44620;-23
2023/06/30 03:52:29;;;;;;;5.70;2.00;;;;;;;;;;5064891;28;38996;-22
2023/06/30 03:54:58;;;;;;;5.03;2.00;;;;;;;;;;5065455;28;42218;-22
2023/06/30 03:57:26;;;;;;;5.72;1.92;;;;;;;;;;5064332;28;42185;-22
2023/06/30 03:59:54;;;;;;;4.85;2.10;;;;;;;;;;5066858;28;44033;-23
2023/06/30 04:02:22;;;;;;;5.75;1.80;;;;;;;;;;5063858;28;43576;-22
2023/06/30 04:04:50;;;;;;;7.13;2.20;;;;;;;;;;5065623;28;41894;-22
2023/06/30 04:07:19;;;;;;;6.55;1.95;;;;;;;;;;5065971;28;42770;-22
2023/06/30 04:09:47;;;;;;;10.07;2.17;;;;;;;;;;5066753;28;43210;-22
2023/06/30 04:12:16;;;;;;;6.22;2.22;;;;;;;;;;5066176;28;41009;-22
2023/06/30 04:14:45;;;;;;;3.83;2.15;;;;;;;;;;5065929;28;42661;-22
2023/06/30 04:17:13;;;;;;;4.50;2.15;;;;;;;;;;5066623;28;43352;-22
2023/06/30 04:19:40;;;;;;;7.43;2.42;;;;;;;;;;5065787;28;40387;-22
2023/06/30 04:22:08;;;;;;;6.47;2.53;;;;;;;;;;5066344;28;44698;-23
2023/06/30 04:24:36;;;;;;;6.57;2.35;;;;;;;;;;5061198;28;40495;-22
2023/06/30 04:27:05;;;;;;;7.85;2.35;;;;;;;;;;5057741;28;43876;-22
2023/06/30 04:29:34;;;;;;;10.55;2.65;;;;;;;;;;5065445;28;43295;-22
2023/06/30 04:32:02;;;;;;;7.85;2.50;;;;;;;;;;5065714;28;40058;-23
2023/06/30 04:34:31;;;;;;;6.40;2.35;;;;;;;;;;5065640;28;42633;-22
2023/06/30 04:36:59;;;;;;;8.80;2.92;;;;;;;;;;5065940;28;44331;-22
2023/06/30 04:39:27;;;;;;;7.93;2.50;;;;;;;;;;5064445;28;40675;-27
2023/06/30 04:41:55;;;;;;;5.82;2.00;;;;;;;;;;5062092;28;43590;-22
2023/06/30 04:44:24;;;;;;;4.95;2.00;;;;;;;;;;5065614;28;40560;-22
2023/06/30 04:46:53;;;;;;;6.65;2.10;;;;;;;;;;5065085;28;43822;-22
2023/06/30 04:49:21;;;;;;;7.25;2.20;;;;;;;;;;5065577;28;44300;-22
2023/06/30 04:51:49;;;;;;;6.72;2.72;;;;;;;;;;5065670;28;40359;-23
2023/06/30 04:54:19;;;;;;;8.48;2.20;;;;;;;;;;5063548;28;42893;-22
2023/06/30 04:56:47;;;;;;;9.10;2.08;;;;;;;;;;5066082;28;46066;-22
2023/06/30 04:59:15;;;;;;;6.93;2.22;;;;;;;;;;5065997;28;40283;-22
2023/06/30 05:01:43;;;;;;;4.18;2.13;;;;;;;;;;5064688;28;42710;-22
2023/06/30 05:04:12;;;;;;;5.95;2.60;;;;;;;;;;5066248;28;33163;-22
2023/06/30 05:06:40;;;;;;;8.02;3.08;;;;;;;;;;5065632;28;42564;-22
2023/06/30 05:09:08;;;;;;;7.22;2.90;;;;;;;;;;5065385;28;44486;-22
2023/06/30 05:11:36;;;;;;;6.47;2.60;;;;;;;;;;5065391;28;40082;-22
2023/06/30 05:14:04;;;;;;;5.72;2.30;;;;;;;;;;5064302;28;43929;-22
2023/06/30 05:16:32;;;;;;;5.13;2.53;;;;;;;;;;5060039;28;43764;-22
2023/06/30 05:19:02;;;;;;;5.93;2.40;;;;;;;;;;5058680;28;42425;-22
2023/06/30 05:21:31;;;;;;;7.57;2.83;;;;;;;;;;5059286;28;42748;-22
2023/06/30 05:23:59;;;;;;;5.65;2.63;;;;;;;;;;5066520;28;43647;-22
2023/06/30 05:26:27;;;;;;;6.88;2.42;;;;;;;;;;5065473;28;43375;-22
2023/06/30 05:28:55;;;;;;;6.05;2.00;;;;;;;;;;5064472;28;43645;-23
2023/06/30 05:31:31;;;;;;;7.10;2.55;;;;;;;;;;5064067;28;40214;-22
2023/06/30 05:34:00;;;;;;;5.22;2.35;;;;;;;;;;5065609;28;43198;-23
2023/06/30 05:36:29;;;;;;;6.10;2.33;;;;;;;;;;5063884;28;45703;-22
2023/06/30 05:38:58;;;;;;;5.18;2.00;;;;;;;;;;5065755;28;40909;-22
2023/06/30 05:41:26;;;;;;;3.72;2.13;;;;;;;;;;5064386;28;42630;-22
2023/06/30 05:43:54;;;;;;;6.25;2.20;;;;;;;;;;5064815;28;43938;-22
2023/06/30 05:46:22;;;;;;;7.47;1.95;;;;;;;;;;5065362;28;41067;-22
2023/06/30 05:48:50;;;;;;;4.90;2.10;;;;;;;;;;5065108;28;43161;-22
2023/06/30 05:51:18;;;;;;;6.85;2.38;;;;;;;;;;5064283;28;40709;-22
2023/06/30 05:53:46;;;;;;;4.35;1.90;;;;;;;;;;5065487;28;44290;-22
2023/06/30 05:56:16;;;;;;;7.15;1.85;;;;;;;;;;5064899;28;44443;-22
2023/06/30 05:58:44;;;;;;;4.57;1.58;;;;;;;;;;5061591;28;40252;-22
2023/06/30 06:01:12;;;;;;;6.90;2.22;;;;;;;;;;5065192;28;42396;-22
2023/06/30 06:03:40;;;;;;;5.22;1.88;;;;;;;;;;5064002;28;43443;-22
2023/06/30 06:06:08;;;;;;;4.22;1.90;;;;;;;;;;5059901;28;40153;-22
2023/06/30 06:08:38;;;;;;;6.88;2.20;;;;;;;;;;5065075;28;43259;-22
2023/06/30 06:11:06;;;;;;;4.18;1.65;;;;;;;;;;5063957;28;39891;-22
2023/06/30 06:13:36;;;;;;;6.53;1.48;;;;;;;;;;5063995;28;43360;-22
2023/06/30 06:16:04;;;;;;;6.38;1.50;;;;;;;;;;5064101;28;43629;-22
2023/06/30 06:18:32;;;;;;;6.90;1.73;;;;;;;;;;5063326;28;40576;-23
2023/06/30 06:21:02;;;;;;;4.93;1.63;;;;;;;;;;5063154;28;44239;-23
2023/06/30 06:23:29;;;;;;;5.50;1.50;;;;;;;;;;5059247;28;43839;-23
2023/06/30 06:25:57;;;;;;;6.97;1.33;;;;;;;;;;5066507;28;40642;-22
2023/06/30 06:28:25;;;;;;;5.50;2.00;;;;;;;;;;5067544;28;42821;-22
2023/06/30 06:30:55;;;;;;;5.50;1.45;;;;;;;;;;5067963;28;43434;-24
2023/06/30 06:33:23;;;;;;;3.92;1.40;;;;;;;;;;5060476;28;42813;-24
2023/06/30 06:35:51;;;;;;;5.90;1.45;;;;;;;;;;5067221;28;43301;-24
2023/06/30 06:38:19;;;;;;;6.07;1.50;;;;;;;;;;5054188;28;40031;-24
2023/06/30 06:40:47;;;;;;;3.60;1.52;;;;;;;;;;5052301;28;42913;-25
2023/06/30 06:43:15;;;;;;;5.32;1.30;;;;;;;;;;5061756;28;42972;-24
2023/06/30 06:45:46;;;;;;;5.13;1.30;;;;;;;;;;5062020;28;40440;-24
2023/06/30 06:48:19;;;;;;;3.20;1.27;;;;;;;;;;5064242;28;42769;-24
2023/06/30 06:50:48;;;;;;;3.00;1.30;;;;;;;;;;5061604;28;43526;-24
2023/06/30 06:53:16;;;;;;;3.58;1.38;;;;;;;;;;5067560;28;40629;-24
2023/06/30 06:55:44;;;;;;;6.47;1.40;;;;;;;;;;5067608;28;44047;-24
2023/06/30 06:58:13;;;;;;;4.85;1.20;;;;;;;;;;5067863;28;42256;-24
2023/06/30 07:00:41;;;;;;;4.07;1.60;;;;;;;;;;5066219;28;43287;-24
2023/06/30 07:03:08;;;;;;;4.35;1.48;;;;;;;;;;5067601;28;43305;-24
2023/06/30 07:05:39;;;;;;;4.57;1.30;;;;;;;;;;5066497;28;40438;-24
2023/06/30 07:08:08;;;;;;;3.63;1.20;;;;;;;;;;5063801;28;40794;-25
2023/06/30 07:10:36;;;;;;;4.28;1.50;;;;;;;;;;5066462;28;43555;-24
2023/06/30 07:13:04;;;;;;;3.42;1.33;;;;;;;;;;5067821;28;41030;-25
2023/06/30 07:15:32;;;;;;;4.47;1.13;;;;;;;;;;5066250;28;44452;-24
2023/06/30 07:18:00;;;;;;;3.75;1.27;;;;;;;;;;5064591;28;40527;-25
2023/06/30 07:20:28;;;;;;;3.58;1.23;;;;;;;;;;5064663;28;43109;-24
2023/06/30 07:22:57;;;;;;;5.03;1.35;;;;;;;;;;5066759;28;43661;-24
2023/06/30 07:25:25;;;;;;;3.75;1.40;;;;;;;;;;5066380;28;40660;-24
2023/06/30 07:27:53;;;;;;;4.95;1.63;;;;;;;;;;5064334;28;41547;-24
2023/06/30 07:30:22;;;;;;;4.50;1.40;;;;;;;;;;5066170;28;43574;-24
2023/06/30 07:32:50;;;;;;;6.43;1.88;;;;;;;;;;5058821;28;40199;-24
2023/06/30 07:35:18;;;;;;;2.85;1.30;;;;;;;;;;5054966;28;43183;-24
2023/06/30 07:37:46;;;;;;;2.70;1.23;;;;;;;;;;5066580;28;40346;-24
2023/06/30 07:40:15;;;;;;;6.22;1.77;;;;;;;;;;5066041;28;43272;-24
2023/06/30 07:42:44;;;;;;;5.90;1.30;;;;;;;;;;5059097;28;43196;-24
2023/06/30 07:45:13;;;;;;;6.50;1.50;;;;;;;;;;5066500;28;41272;-24
2023/06/30 07:47:41;;;;;;;2.53;1.13;;;;;;;;;;5066246;28;43234;-24
2023/06/30 07:50:12;;;;;;;5.05;1.33;;;;;;;;;;5066307;28;44137;-24
2023/06/30 07:52:40;;;;;;;4.80;1.65;;;;;;;;;;5066565;28;40462;-24
2023/06/30 07:55:12;;;;;;;3.80;1.20;;;;;;;;;;5059523;28;42540;-23
2023/06/30 07:57:41;;;;;;;4.38;1.67;;;;;;;;;;5064381;28;44146;-24
2023/06/30 08:00:10;;;;;;;4.90;1.40;;;;;;;;;;5065750;28;42213;-24
2023/06/30 08:02:41;;;;;;;4.13;1.30;;;;;;;;;;5064241;28;43066;-24
2023/06/30 08:05:09;;;;;;;2.80;1.08;;;;;;;;;;5065919;28;40401;-24
2023/06/30 08:07:37;;;;;;;3.25;1.33;;;;;;;;;;5065344;28;42054;-24
2023/06/30 08:10:17;;;;;;;5.32;1.48;;;;;;;;;;5061307;28;43325;-24
2023/06/30 08:12:47;;;;;;;4.78;1.20;;;;;;;;;;5066132;28;41586;-24
2023/06/30 08:15:15;;;;;;;4.18;1.15;;;;;;;;;;5066233;28;43188;-24
2023/06/30 08:17:43;;;;;;;6.32;1.58;;;;;;;;;;5065841;28;44457;-24
2023/06/30 08:20:24;;;;;;;2.50;1.40;;;;;;;;;;5064670;28;39647;-25
2023/06/30 08:22:53;;;;;;;3.17;1.00;;;;;;;;;;5065985;28;43349;-24
2023/06/30 08:25:23;;;;;;;4.47;1.50;;;;;;;;;;5065451;28;40167;-24
2023/06/30 08:27:52;;;;;;;3.33;1.10;;;;;;;;;;5066496;28;43304;-24
2023/06/30 08:30:20;;;;;;;3.85;1.00;;;;;;;;;;5054718;28;43580;-24
2023/06/30 08:32:53;;;;;;;5.22;1.85;;;;;;;;;;5062645;28;40496;-24
2023/06/30 08:35:21;;;;;;;3.55;1.27;;;;;;;;;;5065022;28;43205;-25
2023/06/30 08:37:49;;;;;;;3.88;1.20;;;;;;;;;;5065173;28;43364;-24
2023/06/30 08:40:20;;;;;;;6.25;1.45;;;;;;;;;;5052688;28;40501;-25
2023/06/30 08:42:48;;;;;;;4.75;1.00;;;;;;;;;;5067090;28;43606;-25
2023/06/30 08:45:18;;;;;;;4.43;0.85;;;;;;;;;;5058188;28;39965;-25
2023/06/30 08:47:46;;;;;;;3.28;1.38;;;;;;;;;;5048981;28;43900;-23
2023/06/30 08:50:14;;;;;;;3.55;1.20;;;;;;;;;;5061312;28;44573;-23
2023/06/30 08:52:42;;;;;;;5.60;1.48;;;;;;;;;;5065116;28;41601;-23
2023/06/30 08:55:10;;;;;;;6.50;1.15;;;;;;;;;;5065171;28;42680;-23
2023/06/30 08:57:38;;;;;;;2.00;1.10;;;;;;;;;;5064345;28;43409;-25
2023/06/30 09:00:07;;;;;;;6.28;1.40;;;;;;;;;;5064510;28;40093;-24
2023/06/30 09:02:36;;;;;;;3.25;1.17;;;;;;;;;;5065354;28;42900;-24
2023/06/30 09:05:04;;;;;;;2.35;1.15;;;;;;;;;;5063416;28;42940;-24
2023/06/30 09:07:34;;;;;;;3.92;1.23;;;;;;;;;;5064401;28;42642;-25
2023/06/30 09:10:03;;;;;;;2.95;1.30;;;;;;;;;;5065380;28;43953;-25
2023/06/30 09:12:31;;;;;;;5.85;1.80;;;;;;;;;;5065040;28;41004;-25
2023/06/30 09:15:00;;;;;;;3.42;1.60;;;;;;;;;;5065249;28;43303;-26
2023/06/30 09:17:28;;;;;;;5.85;1.35;;;;;;;;;;5064659;28;43317;-25
2023/06/30 09:19:57;;;;;;;5.50;1.33;;;;;;;;;;5064953;28;41430;-25
2023/06/30 09:22:25;;;;;;;4.13;1.05;;;;;;;;;;5065009;28;43006;-25
2023/06/30 09:25:28;;;;;;;3.80;1.23;;;;;;;;;;5054606;28;42927;-24
2023/06/30 09:27:56;;;;;;;3.42;1.42;;;;;;;;;;5064647;28;43885;-26
2023/06/30 09:30:31;;;;;;;3.13;1.20;;;;;;;;;;5059535;28;44047;-25
2023/06/30 09:32:59;;;;;;;3.88;1.30;;;;;;;;;;5064613;28;40046;-24
2023/06/30 09:35:29;;;;;;;3.85;1.52;;;;;;;;;;5063581;28;43635;-24
2023/06/30 09:37:57;;;;;;;3.03;1.05;;;;;;;;;;5065257;28;44432;-24
2023/06/30 09:40:25;;;;;;;3.88;1.08;;;;;;;;;;5064743;28;40438;-24
2023/06/30 09:42:53;;;;;;;3.35;1.25;;;;;;;;;;5064962;28;43892;-24
2023/06/30 09:45:21;;;;;;;3.25;1.02;;;;;;;;;;5064862;28;43206;-24
2023/06/30 09:47:53;;;;;;;3.13;1.38;;;;;;;;;;5064640;28;41311;-24
2023/06/30 09:50:22;;;;;;;3.72;1.15;;;;;;;;;;5062900;28;43061;-24
2023/06/30 09:52:51;;;;;;;6.40;1.70;;;;;;;;;;5065209;28;42434;-24
2023/06/30 09:55:19;;;;;;;3.40;1.10;;;;;;;;;;5064031;28;42611;-24
2023/06/30 09:57:47;;;;;;;4.85;1.45;;;;;;;;;;5065630;28;45206;-24
2023/06/30 10:00:16;;;;;;;3.65;1.30;;;;;;;;;;5068264;28;40272;-24
2023/06/30 10:03:02;;;;;;;1.95;1.20;;;;;;;;;;5065326;28;42425;-24
2023/06/30 10:05:30;;;;;;;2.20;1.10;;;;;;;;;;5065806;28;42309;-24
2023/06/30 10:08:00;;;;;;;4.00;1.25;;;;;;;;;;5069109;28;41085;-24
2023/06/30 10:10:28;;;;;;;3.80;1.50;;;;;;;;;;5067264;28;43428;-24
2023/06/30 10:12:58;;;;;;;4.45;1.58;;;;;;;;;;5068599;28;40676;-24
2023/06/30 10:15:26;;;;;;;2.53;1.00;;;;;;;;;;5067556;28;42234;-24
2023/06/30 10:17:54;;;;;;;2.75;1.20;;;;;;;;;;5067565;28;43733;-24
2023/06/30 10:20:22;;;;;;;4.95;1.50;;;;;;;;;;5067752;28;41355;-24
2023/06/30 10:23:06;;;;;;;4.32;1.60;;;;;;;;;;5068251;28;43290;-24
2023/06/30 10:25:35;;;;;;;2.45;1.30;;;;;;;;;;5066954;28;43765;-24
2023/06/30 10:28:03;;;;;;;3.67;1.20;;;;;;;;;;5068214;28;40828;-24
2023/06/30 10:30:31;;;;;;;3.42;1.45;;;;;;;;;;5066875;28;43461;-25
2023/06/30 10:32:59;;;;;;;4.70;1.40;;;;;;;;;;5068276;28;43379;-25
2023/06/30 10:35:28;;;;;;;5.57;1.20;;;;;;;;;;5061386;28;44602;-24
2023/06/30 10:37:56;;;;;;;6.18;1.60;;;;;;;;;;5065192;28;43909;-24
2023/06/30 10:40:25;;;;;;;3.28;1.20;;;;;;;;;;5065279;28;40346;-24
2023/06/30 10:42:54;;;;;;;2.15;1.20;;;;;;;;;;5066840;28;43777;-24
2023/06/30 10:45:27;;;;;;;7.25;1.35;;;;;;;;;;5062852;28;45179;-24
2023/06/30 10:47:55;;;;;;;4.93;1.63;;;;;;;;;;5066924;28;41251;-24
2023/06/30 10:50:23;;;;;;;4.03;1.63;;;;;;;;;;5067107;28;42666;-25
2023/06/30 10:52:51;;;;;;;5.38;1.42;;;;;;;;;;5066157;28;44453;-24
2023/06/30 10:55:20;;;;;;;2.38;1.30;;;;;;;;;;5065844;28;41083;-25
2023/06/30 10:57:52;;;;;;;3.90;1.30;;;;;;;;;;5067538;28;43653;-24
2023/06/30 11:00:21;;;;;;;6.13;1.45;;;;;;;;;;5064494;28;40637;-25
2023/06/30 11:02:50;;;;;;;2.65;1.27;;;;;;;;;;5067612;28;42337;-24
2023/06/30 11:05:19;;;;;;;2.75;1.17;;;;;;;;;;5059571;28;43597;-25
2023/06/30 11:07:47;;;;;;;7.10;1.83;;;;;;;;;;5066626;28;41648;-25
2023/06/30 11:10:25;;;;;;;2.40;1.13;;;;;;;;;;5066413;28;42469;-24
2023/06/30 11:12:55;;;;;;;4.18;1.25;;;;;;;;;;5063991;28;44874;-24
2023/06/30 11:15:36;;;;;;;4.18;1.30;;;;;;;;;;5066086;28;40263;-24
2023/06/30 11:18:05;;;;;;;2.17;1.23;;;;;;;;;;5067690;28;43913;-23
2023/06/30 11:20:33;;;;;;;3.17;1.20;;;;;;;;;;5065957;28;41293;-24
2023/06/30 11:23:02;;;;;;;2.22;1.20;;;;;;;;;;5066068;28;43369;-24
2023/06/30 11:25:30;;;;;;;2.45;1.23;;;;;;;;;;5064895;28;43208;-24
2023/06/30 11:28:01;;;;;;;2.40;1.42;;;;;;;;;;5062871;28;38910;-24
2023/06/30 11:30:34;;;;;;;4.90;1.60;;;;;;;;;;5051413;28;42256;-25
2023/06/30 11:33:02;;;;;;;3.45;1.17;;;;;;;;;;5062693;28;42865;-25
2023/06/30 11:35:30;;;;;;;2.65;0.98;;;;;;;;;;5064650;28;39834;-25
2023/06/30 11:37:58;;;;;;;3.22;1.20;;;;;;;;;;5065995;28;43252;-25
2023/06/30 11:40:27;;;;;;;3.53;1.05;;;;;;;;;;5066583;28;40129;-25
2023/06/30 11:42:55;;;;;;;2.53;1.42;;;;;;;;;;5065006;28;43697;-24
2023/06/30 11:45:27;;;;;;;2.83;1.35;;;;;;;;;;5065621;28;44255;-25
2023/06/30 11:47:56;;;;;;;2.10;1.25;;;;;;;;;;5063758;28;40477;-25
2023/06/30 11:50:25;;;;;;;4.05;1.15;;;;;;;;;;5052469;28;44415;-25
2023/06/30 11:52:53;;;;;;;2.45;1.10;;;;;;;;;;5065959;28;44421;-24
2023/06/30 11:55:23;;;;;;;3.33;1.35;;;;;;;;;;5064145;28;40649;-25
2023/06/30 11:57:51;;;;;;;4.25;1.20;;;;;;;;;;5066997;28;43297;-25
2023/06/30 12:00:21;;;;;;;3.67;1.30;;;;;;;;;;5065702;28;43265;-25
2023/06/30 12:02:57;;;;;;;3.38;1.30;;;;;;;;;;5066500;28;43639;-25
2023/06/30 12:05:25;;;;;;;2.22;1.40;;;;;;;;;;5066271;28;44680;-25
2023/06/30 12:07:55;;;;;;;2.72;1.50;;;;;;;;;;5061803;28;40477;-25
2023/06/30 12:10:36;;;;;;;9.25;1.55;;;;;;;;;;5065703;28;42825;-25
2023/06/30 12:13:06;;;;;;;3.53;1.35;;;;;;;;;;5052995;28;43113;-25
2023/06/30 12:15:34;;;;;;;3.03;1.40;;;;;;;;;;5066012;28;40435;-25
2023/06/30 12:18:04;;;;;;;4.22;1.20;;;;;;;;;;5065543;28;43276;-26
2023/06/30 12:20:33;;;;;;;4.88;1.40;;;;;;;;;;5063082;28;43309;-25
2023/06/30 12:23:01;;;;;;;4.40;1.30;;;;;;;;;;5065903;28;41189;-27
2023/06/30 12:25:30;;;;;;;4.95;1.55;;;;;;;;;;5065741;28;44025;-27
2023/06/30 12:27:58;;;;;;;2.58;1.38;;;;;;;;;;5065573;28;41229;-25
2023/06/30 12:30:28;;;;;;;2.80;1.20;;;;;;;;;;5065197;28;43633;-27
2023/06/30 12:32:57;;;;;;;2.83;1.38;;;;;;;;;;5065369;28;43013;-25
2023/06/30 12:35:30;;;;;;;4.00;1.52;;;;;;;;;;5065520;28;41171;-27
2023/06/30 12:37:59;;;;;;;5.88;1.42;;;;;;;;;;5065722;28;43224;-26
2023/06/30 12:40:27;;;;;;;3.40;1.50;;;;;;;;;;5065322;28;44160;-32
2023/06/30 12:42:55;;;;;;;7.57;1.33;;;;;;;;;;5065628;28;40516;-27
2023/06/30 12:45:23;;;;;;;4.80;1.10;;;;;;;;;;5064202;28;42910;-24
2023/06/30 12:47:51;;;;;;;2.65;1.20;;;;;;;;;;5065893;28;42387;-26
2023/06/30 12:50:20;;;;;;;4.57;1.60;;;;;;;;;;5065604;28;42969;-25
2023/06/30 12:52:49;;;;;;;4.38;1.40;;;;;;;;;;5065008;28;43908;-25
2023/06/30 12:55:18;;;;;;;4.30;1.52;;;;;;;;;;5065327;28;41181;-25
2023/06/30 12:57:46;;;;;;;2.78;1.33;;;;;;;;;;5065885;28;43676;-24
2023/06/30 13:00:15;;;;;;;2.88;1.13;;;;;;;;;;5064140;28;43483;-25
2023/06/30 13:02:43;;;;;;;3.35;1.48;;;;;;;;;;5065693;28;40484;-25
2023/06/30 13:05:11;;;;;;;3.47;1.45;;;;;;;;;;5064651;28;42518;-24
2023/06/30 13:07:39;;;;;;;2.50;1.20;;;;;;;;;;5060980;28;43098;-25
2023/06/30 13:10:09;;;;;;;2.95;1.52;;;;;;;;;;5054773;28;43191;-25
2023/06/30 13:12:40;;;;;;;2.65;1.30;;;;;;;;;;5061791;28;43664;-23
2023/06/30 13:15:08;;;;;;;4.15;1.70;;;;;;;;;;5065100;28;39850;-26
2023/06/30 13:17:37;;;;;;;2.05;1.33;;;;;;;;;;5064564;28;43514;-25
2023/06/30 13:20:06;;;;;;;1.60;1.10;;;;;;;;;;5055506;28;45066;-27
2023/06/30 13:22:34;;;;;;;3.20;1.33;;;;;;;;;;5065100;28;41000;-27
2023/06/30 13:25:07;;;;;;;2.53;1.63;;;;;;;;;;5065525;28;42440;-30
2023/06/30 13:27:36;;;;;;;4.28;1.80;;;;;;;;;;5064260;28;44464;-25
2023/06/30 13:30:05;;;;;;;3.10;1.35;;;;;;;;;;5066227;28;40113;-28
2023/06/30 13:32:33;;;;;;;2.95;1.50;;;;;;;;;;5063477;28;43682;-24
2023/06/30 13:35:01;;;;;;;6.28;1.65;;;;;;;;;;5064608;28;41325;-29
2023/06/30 13:37:29;;;;;;;5.22;1.30;;;;;;;;;;5068861;28;42549;-25
2023/06/30 13:39:57;;;;;;;2.95;1.60;;;;;;;;;;5069640;28;43412;-25
2023/06/30 13:42:25;;;;;;;3.28;1.77;;;;;;;;;;5067735;28;41323;-26
2023/06/30 13:44:54;;;;;;;2.65;1.58;;;;;;;;;;5069175;28;43282;-25
2023/06/30 13:47:22;;;;;;;5.00;1.65;;;;;;;;;;5067520;28;43080;-25
2023/06/30 13:49:50;;;;;;;3.95;1.70;;;;;;;;;;5069324;28;41262;-27
2023/06/30 13:52:18;;;;;;;4.20;1.33;;;;;;;;;;5068701;28;43164;-26
2023/06/30 13:54:46;;;;;;;3.28;1.42;;;;;;;;;;5068163;28;40390;-24
2023/06/30 13:57:14;;;;;;;3.22;1.58;;;;;;;;;;5055680;28;44200;-26
2023/06/30 13:59:42;;;;;;;3.05;1.45;;;;;;;;;;5100687;28;45274;-26
2023/06/30 14:02:11;;;;;;;5.75;1.77;;;;;;;;;;5068289;28;41308;-29
2023/06/30 14:04:39;;;;;;;4.30;1.48;;;;;;;;;;5061882;28;42662;-26
2023/06/30 14:07:07;;;;;;;3.65;1.60;;;;;;;;;;5064611;28;44471;-26
2023/06/30 14:09:35;;;;;;;3.92;1.70;;;;;;;;;;5067920;28;40536;-26
2023/06/30 14:12:05;;;;;;;5.43;1.95;;;;;;;;;;5069231;28;42713;-27
2023/06/30 14:14:33;;;;;;;4.20;1.63;;;;;;;;;;5068348;28;40876;-24
2023/06/30 14:17:01;;;;;;;4.68;1.65;;;;;;;;;;5068379;28;42290;-25
2023/06/30 14:19:30;;;;;;;5.80;1.90;;;;;;;;;;5067579;28;43113;-27
2023/06/30 14:21:58;;;;;;;3.47;1.77;;;;;;;;;;5068647;28;41418;-24
2023/06/30 14:24:26;;;;;;;4.18;1.80;;;;;;;;;;5066844;28;43732;-27
2023/06/30 14:26:54;;;;;;;3.38;1.60;;;;;;;;;;5068546;28;44564;-25
2023/06/30 14:29:22;;;;;;;6.32;1.90;;;;;;;;;;5067105;28;40194;-26
2023/06/30 14:31:51;;;;;;;4.88;1.80;;;;;;;;;;5068547;28;42436;-25
2023/06/30 14:34:18;;;;;;;2.97;1.70;;;;;;;;;;5067760;28;44166;-26
2023/06/30 14:36:48;;;;;;;3.47;1.77;;;;;;;;;;5067786;28;43649;-25
2023/06/30 14:39:16;;;;;;;5.30;2.08;;;;;;;;;;5060781;28;43791;-25
2023/06/30 14:41:46;;;;;;;4.05;1.70;;;;;;;;;;5068338;28;41134;-25
2023/06/30 14:44:29;;;;;;;7.13;1.83;;;;;;;;;;5060210;28;43288;-26
2023/06/30 14:46:58;;;;;;;3.70;1.80;;;;;;;;;;5066807;28;44461;-25
2023/06/30 14:49:26;;;;;;;4.75;1.90;;;;;;;;;;5067304;28;40037;-27
2023/06/30 14:51:56;;;;;;;4.47;2.08;;;;;;;;;;5065625;28;41047;-24
2023/06/30 14:54:24;;;;;;;3.42;1.90;;;;;;;;;;5060690;28;42633;-25